createdAt,value
2018-04-07T00:00:35.917Z,0
2018-04-07T00:01:36.651Z,0
2018-04-07T00:02:37.392Z,0
2018-04-07T00:03:38.177Z,0
2018-04-07T00:04:38.912Z,0
2018-04-07T00:05:39.622Z,0
2018-04-07T00:06:40.339Z,0
2018-04-07T00:07:41.070Z,0
2018-04-07T00:08:41.828Z,0
2018-04-07T00:09:42.563Z,0
2018-04-07T00:10:43.291Z,0
2018-04-07T00:11:44.021Z,0
2018-04-07T00:12:44.804Z,0
2018-04-07T00:13:45.616Z,0
2018-04-07T00:14:46.341Z,0
2018-04-07T00:15:47.077Z,0
2018-04-07T00:16:47.803Z,0
2018-04-07T00:17:48.536Z,0
2018-04-07T00:18:49.250Z,0
2018-04-07T00:19:50.008Z,0
2018-04-07T00:20:50.723Z,0
2018-04-07T00:21:51.530Z,0
2018-04-07T00:22:52.346Z,0
2018-04-07T00:23:53.078Z,0
2018-04-07T00:24:53.874Z,0
2018-04-07T00:25:54.594Z,0
2018-04-07T00:26:55.334Z,0
2018-04-07T00:27:56.123Z,0
2018-04-07T00:28:56.850Z,0
2018-04-07T00:29:57.568Z,0
2018-04-07T00:30:58.356Z,0
2018-04-07T00:31:59.069Z,0
2018-04-07T00:32:59.802Z,0
2018-04-07T00:34:00.533Z,0
2018-04-07T00:35:01.291Z,0
2018-04-07T00:36:02.070Z,0
2018-04-07T00:37:02.781Z,0
2018-04-07T00:38:03.566Z,0
2018-04-07T00:39:04.289Z,0
2018-04-07T00:40:05.036Z,0
2018-04-07T00:41:05.763Z,0
2018-04-07T00:42:06.478Z,0
2018-04-07T00:43:07.194Z,0
2018-04-07T00:44:07.923Z,0
2018-04-07T00:45:08.649Z,0
2018-04-07T00:46:09.442Z,0
2018-04-07T00:47:10.219Z,0
2018-04-07T00:48:11.060Z,0
2018-04-07T00:49:11.786Z,0
2018-04-07T00:50:12.540Z,0
2018-04-07T00:51:13.265Z,0
2018-04-07T00:52:13.995Z,0
2018-04-07T00:53:14.757Z,0
2018-04-07T00:54:15.508Z,0
2018-04-07T00:55:16.323Z,0
2018-04-07T00:56:17.047Z,0
2018-04-07T00:57:17.786Z,0
2018-04-07T00:58:18.499Z,0
2018-04-07T00:59:19.299Z,0
2018-04-07T01:00:20.012Z,0
2018-04-07T01:01:20.747Z,0
2018-04-07T01:02:21.471Z,0
2018-04-07T01:03:22.278Z,0
2018-04-07T01:04:22.990Z,0
2018-04-07T01:05:23.703Z,0
2018-04-07T01:06:24.438Z,0
2018-04-07T01:07:25.155Z,0
2018-04-07T01:08:25.876Z,0
2018-04-07T01:09:26.606Z,0
2018-04-07T01:10:27.332Z,0
2018-04-07T01:11:28.070Z,0
2018-04-07T01:12:28.859Z,0
2018-04-07T01:13:29.632Z,0
2018-04-07T01:14:30.437Z,0
2018-04-07T01:15:31.162Z,0
2018-04-07T01:16:31.884Z,0
2018-04-07T01:17:32.612Z,0
2018-04-07T01:18:33.361Z,0
2018-04-07T01:19:34.085Z,0
2018-04-07T01:20:34.812Z,0
2018-04-07T01:21:35.545Z,0
2018-04-07T01:22:36.274Z,0
2018-04-07T01:23:37.139Z,0
2018-04-07T01:24:37.851Z,0
2018-04-07T01:25:38.580Z,0
2018-04-07T01:26:39.319Z,0
2018-04-07T01:27:40.043Z,0
2018-04-07T01:28:40.897Z,0
2018-04-07T01:29:41.644Z,0
2018-04-07T01:30:42.365Z,0
2018-04-07T01:31:43.096Z,0
2018-04-07T01:32:43.821Z,0
2018-04-07T01:33:44.531Z,0
2018-04-07T01:34:45.401Z,0
2018-04-07T01:35:46.226Z,0
2018-04-07T01:36:47.046Z,0
2018-04-07T01:37:47.845Z,0
2018-04-07T01:38:48.582Z,0
2018-04-07T01:39:49.715Z,0
2018-04-07T01:40:50.444Z,0
2018-04-07T01:41:51.239Z,0
2018-04-07T01:42:52.010Z,0
2018-04-07T01:43:52.819Z,0
2018-04-07T01:44:53.545Z,0
2018-04-07T01:45:54.405Z,0
2018-04-07T01:46:55.111Z,0
2018-04-07T01:47:55.833Z,0
2018-04-07T01:48:56.556Z,0
2018-04-07T01:49:57.280Z,0
2018-04-07T01:50:58.008Z,0
2018-04-07T01:51:58.750Z,0
2018-04-07T01:52:59.551Z,0
2018-04-07T01:54:00.273Z,0
2018-04-07T01:55:00.990Z,0
2018-04-07T01:56:01.724Z,0
2018-04-07T01:57:02.458Z,0
2018-04-07T01:58:03.184Z,0
2018-04-07T01:59:03.903Z,0
2018-04-07T02:00:04.659Z,0
2018-04-07T02:01:05.370Z,0
2018-04-07T02:02:06.142Z,0
2018-04-07T02:03:06.866Z,0
2018-04-07T02:04:07.600Z,0
2018-04-07T02:05:08.319Z,0
2018-04-07T02:06:09.031Z,0
2018-04-07T02:07:09.758Z,0
2018-04-07T02:08:10.577Z,0
2018-04-07T02:09:11.397Z,0
2018-04-07T02:10:12.143Z,0
2018-04-07T02:11:13.951Z,0
2018-04-07T02:12:14.962Z,0
2018-04-07T02:13:16.713Z,0
2018-04-07T02:14:18.644Z,0
2018-04-07T02:15:20.525Z,0
2018-04-07T02:16:21.367Z,0
2018-04-07T02:17:22.172Z,0
2018-04-07T02:18:22.903Z,0
2018-04-07T02:19:23.643Z,0
2018-04-07T02:20:24.463Z,0
2018-04-07T02:21:25.180Z,0
2018-04-07T02:22:25.989Z,0
2018-04-07T02:23:26.811Z,0
2018-04-07T02:24:27.548Z,0
2018-04-07T02:25:28.349Z,0
2018-04-07T02:26:29.060Z,0
2018-04-07T02:27:29.794Z,0
2018-04-07T02:28:30.529Z,0
2018-04-07T02:29:31.264Z,0
2018-04-07T02:30:31.985Z,0
2018-04-07T02:31:32.760Z,0
2018-04-07T02:32:33.917Z,0
2018-04-07T02:33:34.635Z,0
2018-04-07T02:34:35.351Z,0
2018-04-07T02:35:36.084Z,0
2018-04-07T02:36:36.872Z,0
2018-04-07T02:37:37.608Z,0
2018-04-07T02:38:38.329Z,0
2018-04-07T02:39:39.184Z,0
2018-04-07T02:40:39.961Z,0
2018-04-07T02:41:40.707Z,0
2018-04-07T02:42:41.480Z,0
2018-04-07T02:43:42.206Z,0
2018-04-07T02:44:42.943Z,0
2018-04-07T02:45:43.680Z,0
2018-04-07T02:46:44.406Z,0
2018-04-07T02:47:45.132Z,0
2018-04-07T02:48:45.945Z,0
2018-04-07T02:49:46.720Z,0
2018-04-07T02:50:47.527Z,0
2018-04-07T02:51:48.297Z,0
2018-04-07T02:52:49.034Z,0
2018-04-07T02:53:49.854Z,0
2018-04-07T02:54:50.626Z,0
2018-04-07T02:55:51.374Z,0
2018-04-07T02:56:52.128Z,0
2018-04-07T02:57:52.839Z,0
2018-04-07T02:58:53.578Z,0
2018-04-07T02:59:54.317Z,0
2018-04-07T03:00:55.091Z,0
2018-04-07T03:01:55.818Z,0
2018-04-07T03:02:56.538Z,0
2018-04-07T03:03:57.267Z,0
2018-04-07T03:04:57.988Z,0
2018-04-07T03:05:58.754Z,0
2018-04-07T03:06:59.532Z,0
2018-04-07T03:08:00.257Z,0
2018-04-07T03:09:00.996Z,0
2018-04-07T03:10:01.784Z,0
2018-04-07T03:11:02.604Z,0
2018-04-07T03:12:03.347Z,0
2018-04-07T03:13:04.119Z,0
2018-04-07T03:14:04.832Z,0
2018-04-07T03:15:05.572Z,0
2018-04-07T03:16:06.310Z,0
2018-04-07T03:17:07.059Z,0
2018-04-07T03:18:07.913Z,0
2018-04-07T03:19:08.734Z,0
2018-04-07T03:20:09.467Z,0
2018-04-07T03:21:10.187Z,0
2018-04-07T03:22:10.967Z,0
2018-04-07T03:23:11.700Z,0
2018-04-07T03:24:12.440Z,0
2018-04-07T03:25:13.277Z,0
2018-04-07T03:26:13.986Z,0
2018-04-07T03:27:14.718Z,0
2018-04-07T03:28:15.439Z,0
2018-04-07T03:29:16.183Z,0
2018-04-07T03:30:16.981Z,0
2018-04-07T03:31:17.720Z,0
2018-04-07T03:32:18.444Z,0
2018-04-07T03:33:19.168Z,0
2018-04-07T03:34:19.898Z,0
2018-04-07T03:35:20.723Z,0
2018-04-07T03:36:21.448Z,0
2018-04-07T03:37:22.187Z,0
2018-04-07T03:38:22.907Z,0
2018-04-07T03:39:23.636Z,0
2018-04-07T03:40:24.362Z,0
2018-04-07T03:41:25.097Z,0
2018-04-07T03:42:25.860Z,0
2018-04-07T03:43:26.599Z,0
2018-04-07T03:44:27.328Z,0
2018-04-07T03:45:28.071Z,0
2018-04-07T03:46:28.811Z,0
2018-04-07T03:47:29.543Z,0
2018-04-07T03:48:30.247Z,0
2018-04-07T03:49:30.984Z,0
2018-04-07T03:50:31.712Z,0
2018-04-07T03:51:32.529Z,0
2018-04-07T03:52:33.262Z,0
2018-04-07T03:53:34.069Z,0
2018-04-07T03:54:34.816Z,0
2018-04-07T03:55:35.526Z,0
2018-04-07T03:56:36.315Z,0
2018-04-07T03:57:37.100Z,0
2018-04-07T03:58:37.896Z,0
2018-04-07T03:59:38.613Z,0
2018-04-07T04:00:39.334Z,0
2018-04-07T04:01:40.053Z,0
2018-04-07T04:02:40.768Z,0
2018-04-07T04:03:41.507Z,0
2018-04-07T04:04:42.250Z,0
2018-04-07T04:05:42.971Z,0
2018-04-07T04:06:43.767Z,0
2018-04-07T04:07:44.566Z,0
2018-04-07T04:08:45.367Z,0
2018-04-07T04:09:46.235Z,0
2018-04-07T04:10:46.977Z,0
2018-04-07T04:11:47.693Z,0
2018-04-07T04:12:48.421Z,0
2018-04-07T04:13:49.192Z,0
2018-04-07T04:14:49.980Z,0
2018-04-07T04:15:50.702Z,0
2018-04-07T04:16:51.487Z,0
2018-04-07T04:17:52.212Z,0
2018-04-07T04:18:52.939Z,0
2018-04-07T04:19:53.658Z,0
2018-04-07T04:20:54.402Z,0
2018-04-07T04:21:55.150Z,0
2018-04-07T04:22:55.874Z,0
2018-04-07T04:23:56.677Z,0
2018-04-07T04:24:57.411Z,0
2018-04-07T04:25:58.232Z,0
2018-04-07T04:26:58.966Z,0
2018-04-07T04:27:59.737Z,0
2018-04-07T04:29:00.470Z,0
2018-04-07T04:30:01.213Z,0
2018-04-07T04:31:02.277Z,0
2018-04-07T04:32:03.023Z,0
2018-04-07T04:33:03.740Z,0
2018-04-07T04:34:04.488Z,0
2018-04-07T04:35:05.260Z,5
2018-04-07T04:36:06.051Z,5
2018-04-07T04:37:06.770Z,5
2018-04-07T04:38:07.563Z,5
2018-04-07T04:39:08.304Z,5
2018-04-07T04:40:09.111Z,5
2018-04-07T04:41:09.842Z,5
2018-04-07T04:42:10.655Z,5
2018-04-07T04:43:11.370Z,11
2018-04-07T04:44:12.102Z,11
2018-04-07T04:45:12.829Z,11
2018-04-07T04:46:13.563Z,11
2018-04-07T04:47:14.288Z,11
2018-04-07T04:48:15.054Z,16
2018-04-07T04:49:15.777Z,16
2018-04-07T04:50:16.511Z,16
2018-04-07T04:51:17.237Z,22
2018-04-07T04:52:18.020Z,22
2018-04-07T04:53:18.747Z,28
2018-04-07T04:54:19.820Z,28
2018-04-07T04:55:20.602Z,33
2018-04-07T04:56:21.327Z,33
2018-04-07T04:57:22.041Z,39
2018-04-07T04:58:22.775Z,39
2018-04-07T04:59:24.196Z,45
2018-04-07T05:00:24.938Z,45
2018-04-07T05:01:25.743Z,50
2018-04-07T05:02:26.514Z,50
2018-04-07T05:03:27.252Z,56
2018-04-07T05:04:27.980Z,56
2018-04-07T05:05:28.758Z,61
2018-04-07T05:06:29.501Z,61
2018-04-07T05:07:30.234Z,67
2018-04-07T05:08:31.030Z,67
2018-04-07T05:09:31.785Z,73
2018-04-07T05:10:32.532Z,78
2018-04-07T05:11:33.246Z,78
2018-04-07T05:12:34.032Z,84
2018-04-07T05:13:34.762Z,84
2018-04-07T05:14:35.502Z,90
2018-04-07T05:15:36.228Z,95
2018-04-07T05:16:36.938Z,95
2018-04-07T05:17:38.047Z,101
2018-04-07T05:18:38.861Z,101
2018-04-07T05:19:39.578Z,101
2018-04-07T05:20:40.310Z,101
2018-04-07T05:21:41.031Z,106
2018-04-07T05:22:41.838Z,112
2018-04-07T05:23:42.574Z,112
2018-04-07T05:24:43.302Z,118
2018-04-07T05:25:44.053Z,118
2018-04-07T05:26:44.847Z,123
2018-04-07T05:27:45.720Z,123
2018-04-07T05:28:46.519Z,129
2018-04-07T05:29:47.246Z,129
2018-04-07T05:30:47.978Z,129
2018-04-07T05:31:48.720Z,129
2018-04-07T05:32:49.448Z,135
2018-04-07T05:33:50.262Z,135
2018-04-07T05:34:50.976Z,140
2018-04-07T05:35:51.864Z,140
2018-04-07T05:36:52.660Z,146
2018-04-07T05:37:53.389Z,146
2018-04-07T05:38:54.111Z,146
2018-04-07T05:39:54.852Z,146
2018-04-07T05:40:55.583Z,151
2018-04-07T05:41:56.300Z,151
2018-04-07T05:42:57.057Z,157
2018-04-07T05:43:57.805Z,157
2018-04-07T05:44:58.589Z,157
2018-04-07T05:45:59.391Z,163
2018-04-07T05:47:00.190Z,168
2018-04-07T05:48:00.974Z,168
2018-04-07T05:49:01.792Z,185
2018-04-07T05:50:02.575Z,191
2018-04-07T05:51:03.298Z,185
2018-04-07T05:52:04.045Z,180
2018-04-07T05:53:04.789Z,174
2018-04-07T05:54:05.571Z,191
2018-04-07T05:55:06.316Z,196
2018-04-07T05:56:07.108Z,185
2018-04-07T05:57:07.838Z,191
2018-04-07T05:58:08.568Z,185
2018-04-07T05:59:09.362Z,191
2018-04-07T06:00:10.093Z,191
2018-04-07T06:01:10.820Z,196
2018-04-07T06:02:11.647Z,196
2018-04-07T06:03:12.727Z,196
2018-04-07T06:04:13.540Z,208
2018-04-07T06:05:14.278Z,196
2018-04-07T06:06:15.014Z,196
2018-04-07T06:07:15.786Z,202
2018-04-07T06:08:16.569Z,213
2018-04-07T06:09:17.303Z,219
2018-04-07T06:10:18.028Z,208
2018-04-07T06:11:18.847Z,208
2018-04-07T06:12:19.565Z,208
2018-04-07T06:13:20.286Z,213
2018-04-07T06:14:21.080Z,213
2018-04-07T06:15:21.790Z,219
2018-04-07T06:16:22.541Z,225
2018-04-07T06:17:23.271Z,225
2018-04-07T06:18:24.012Z,230
2018-04-07T06:19:24.747Z,236
2018-04-07T06:20:25.483Z,236
2018-04-07T06:21:26.210Z,241
2018-04-07T06:22:26.938Z,241
2018-04-07T06:23:27.770Z,247
2018-04-07T06:24:28.502Z,258
2018-04-07T06:25:29.223Z,253
2018-04-07T06:26:30.028Z,275
2018-04-07T06:27:30.765Z,292
2018-04-07T06:28:31.544Z,275
2018-04-07T06:29:32.296Z,337
2018-04-07T06:30:33.031Z,298
2018-04-07T06:31:33.820Z,298
2018-04-07T06:32:34.566Z,298
2018-04-07T06:33:35.289Z,281
2018-04-07T06:34:36.012Z,275
2018-04-07T06:35:36.747Z,303
2018-04-07T06:36:37.509Z,270
2018-04-07T06:37:38.368Z,275
2018-04-07T06:38:39.163Z,286
2018-04-07T06:39:39.988Z,286
2018-04-07T06:40:40.777Z,331
2018-04-07T06:41:41.588Z,315
2018-04-07T06:42:42.320Z,320
2018-04-07T06:43:43.044Z,315
2018-04-07T06:44:43.864Z,365
2018-04-07T06:45:44.630Z,320
2018-04-07T06:46:45.389Z,320
2018-04-07T06:47:46.167Z,320
2018-04-07T06:48:46.913Z,343
2018-04-07T06:49:47.656Z,371
2018-04-07T06:50:48.463Z,365
2018-04-07T06:51:49.214Z,416
2018-04-07T06:52:49.951Z,365
2018-04-07T06:53:50.780Z,427
2018-04-07T06:54:51.547Z,399
2018-04-07T06:55:52.296Z,376
2018-04-07T06:56:53.040Z,382
2018-04-07T06:57:53.786Z,405
2018-04-07T06:58:54.526Z,433
2018-04-07T06:59:55.305Z,421
2018-04-07T07:00:56.123Z,393
2018-04-07T07:01:56.928Z,399
2018-04-07T07:02:57.660Z,331
2018-04-07T07:03:58.465Z,337
2018-04-07T07:04:59.187Z,360
2018-04-07T07:05:59.907Z,410
2018-04-07T07:07:00.659Z,343
2018-04-07T07:08:01.381Z,343
2018-04-07T07:09:02.166Z,348
2018-04-07T07:10:02.861Z,354
2018-04-07T07:11:03.654Z,365
2018-04-07T07:12:04.692Z,393
2018-04-07T07:13:05.433Z,360
2018-04-07T07:14:06.251Z,365
2018-04-07T07:15:07.077Z,421
2018-04-07T07:16:07.797Z,534
2018-04-07T07:17:08.594Z,466
2018-04-07T07:18:09.335Z,410
2018-04-07T07:19:10.123Z,399
2018-04-07T07:20:10.849Z,399
2018-04-07T07:21:11.595Z,393
2018-04-07T07:22:12.307Z,421
2018-04-07T07:23:13.046Z,444
2018-04-07T07:24:13.799Z,551
2018-04-07T07:25:14.589Z,821
2018-04-07T07:26:15.375Z,1119
2018-04-07T07:27:16.115Z,1012
2018-04-07T07:28:16.875Z,1001
2018-04-07T07:29:17.680Z,961
2018-04-07T07:30:18.410Z,905
2018-04-07T07:31:19.196Z,922
2018-04-07T07:32:19.999Z,984
2018-04-07T07:33:20.778Z,1175
2018-04-07T07:34:21.601Z,1164
2018-04-07T07:35:22.337Z,1085
2018-04-07T07:36:23.074Z,1068
2018-04-07T07:37:23.806Z,1153
2018-04-07T07:38:24.596Z,1198
2018-04-07T07:39:25.365Z,911
2018-04-07T07:40:26.170Z,1029
2018-04-07T07:41:26.922Z,1186
2018-04-07T07:42:27.747Z,1209
2018-04-07T07:43:28.492Z,1428
2018-04-07T07:44:29.229Z,1530
2018-04-07T07:45:29.958Z,1383
2018-04-07T07:46:30.707Z,1389
2018-04-07T07:47:31.501Z,1496
2018-04-07T07:48:32.294Z,1479
2018-04-07T07:49:33.099Z,1591
2018-04-07T07:50:33.855Z,1620
2018-04-07T07:51:34.700Z,1715
2018-04-07T07:52:35.454Z,1771
2018-04-07T07:53:36.202Z,1614
2018-04-07T07:54:36.935Z,1788
2018-04-07T07:55:37.744Z,1788
2018-04-07T07:56:38.501Z,1749
2018-04-07T07:57:39.254Z,1839
2018-04-07T07:58:40.021Z,1845
2018-04-07T07:59:40.886Z,1788
2018-04-07T08:00:41.702Z,1766
2018-04-07T08:01:42.438Z,1732
2018-04-07T08:02:43.171Z,1822
2018-04-07T08:03:43.990Z,1946
2018-04-07T08:04:44.852Z,2019
2018-04-07T08:05:45.639Z,2041
2018-04-07T08:06:46.391Z,1985
2018-04-07T08:07:47.141Z,1985
2018-04-07T08:08:47.863Z,2002
2018-04-07T08:09:48.647Z,2002
2018-04-07T08:10:49.420Z,1845
2018-04-07T08:11:50.218Z,1845
2018-04-07T08:12:51.026Z,1816
2018-04-07T08:13:51.775Z,2086
2018-04-07T08:14:52.564Z,2098
2018-04-07T08:15:53.392Z,2160
2018-04-07T08:16:54.128Z,2115
2018-04-07T08:17:54.870Z,2210
2018-04-07T08:18:55.699Z,2210
2018-04-07T08:19:56.438Z,2221
2018-04-07T08:20:57.183Z,2250
2018-04-07T08:21:58.078Z,2171
2018-04-07T08:22:58.897Z,2244
2018-04-07T08:23:59.638Z,2255
2018-04-07T08:25:00.468Z,2238
2018-04-07T08:26:01.190Z,2233
2018-04-07T08:27:01.974Z,2272
2018-04-07T08:28:02.788Z,2295
2018-04-07T08:29:03.518Z,2334
2018-04-07T08:30:04.271Z,2396
2018-04-07T08:31:05.013Z,2413
2018-04-07T08:32:05.802Z,2435
2018-04-07T08:33:06.492Z,2435
2018-04-07T08:34:07.319Z,2424
2018-04-07T08:35:08.072Z,2430
2018-04-07T08:36:08.810Z,2407
2018-04-07T08:37:09.564Z,2407
2018-04-07T08:38:10.372Z,2390
2018-04-07T08:39:11.154Z,2385
2018-04-07T08:40:11.961Z,2345
2018-04-07T08:41:12.694Z,2396
2018-04-07T08:42:13.436Z,2368
2018-04-07T08:43:14.171Z,2368
2018-04-07T08:44:14.911Z,2413
2018-04-07T08:45:15.661Z,2390
2018-04-07T08:46:16.395Z,2385
2018-04-07T08:47:17.199Z,2379
2018-04-07T08:48:17.942Z,2351
2018-04-07T08:49:18.688Z,2452
2018-04-07T08:50:19.530Z,2452
2018-04-07T08:51:20.287Z,2508
2018-04-07T08:52:21.102Z,2525
2018-04-07T08:53:21.852Z,2525
2018-04-07T08:54:22.607Z,2508
2018-04-07T08:55:23.403Z,2514
2018-04-07T08:56:24.141Z,2514
2018-04-07T08:57:24.950Z,2542
2018-04-07T08:58:25.751Z,2559
2018-04-07T08:59:26.491Z,2610
2018-04-07T09:00:28.442Z,2587
2018-04-07T09:01:29.121Z,2587
2018-04-07T09:02:29.976Z,2565
2018-04-07T09:03:30.809Z,2565
2018-04-07T09:04:31.572Z,2559
2018-04-07T09:05:32.336Z,2610
2018-04-07T09:06:33.142Z,2621
2018-04-07T09:07:33.953Z,2638
2018-04-07T09:08:34.721Z,2671
2018-04-07T09:09:36.190Z,2683
2018-04-07T09:10:36.869Z,2671
2018-04-07T09:11:37.747Z,2615
2018-04-07T09:12:38.558Z,2587
2018-04-07T09:13:39.374Z,2638
2018-04-07T09:14:40.133Z,2615
2018-04-07T09:15:40.867Z,2649
2018-04-07T09:16:41.602Z,2649
2018-04-07T09:17:42.498Z,2694
2018-04-07T09:18:43.315Z,2711
2018-04-07T09:19:44.118Z,2688
2018-04-07T09:20:44.953Z,2649
2018-04-07T09:21:45.661Z,2598
2018-04-07T09:22:46.455Z,2649
2018-04-07T09:23:47.244Z,2615
2018-04-07T09:24:47.977Z,2587
2018-04-07T09:25:48.773Z,2593
2018-04-07T09:26:49.471Z,2660
2018-04-07T09:27:50.256Z,2688
2018-04-07T09:28:51.087Z,2716
2018-04-07T09:29:51.813Z,2683
2018-04-07T09:30:52.562Z,2868
2018-04-07T09:31:53.327Z,2835
2018-04-07T09:32:54.148Z,2818
2018-04-07T09:33:54.892Z,2694
2018-04-07T09:34:56.400Z,2598
2018-04-07T09:35:57.317Z,2722
2018-04-07T09:36:58.077Z,2778
2018-04-07T09:37:58.878Z,2638
2018-04-07T09:38:59.664Z,2941
2018-04-07T09:40:00.488Z,2896
2018-04-07T09:41:01.245Z,2975
2018-04-07T09:42:01.984Z,2925
2018-04-07T09:43:02.738Z,2885
2018-04-07T09:44:03.551Z,2880
2018-04-07T09:45:04.287Z,2857
2018-04-07T09:46:05.093Z,2919
2018-04-07T09:47:05.830Z,2902
2018-04-07T09:48:06.572Z,2818
2018-04-07T09:49:07.359Z,2806
2018-04-07T09:50:08.102Z,2857
2018-04-07T09:51:08.916Z,2891
2018-04-07T09:52:09.737Z,2970
2018-04-07T09:53:10.499Z,2958
2018-04-07T09:54:11.311Z,2896
2018-04-07T09:55:12.115Z,2857
2018-04-07T09:56:12.848Z,2936
2018-04-07T09:57:13.650Z,3015
2018-04-07T09:58:14.452Z,3020
2018-04-07T09:59:15.249Z,3048
2018-04-07T10:00:16.064Z,3026
2018-04-07T10:01:16.829Z,2992
2018-04-07T10:02:17.664Z,2992
2018-04-07T10:03:18.386Z,3082
2018-04-07T10:04:19.256Z,3076
2018-04-07T10:05:19.977Z,3099
2018-04-07T10:06:20.770Z,3015
2018-04-07T10:07:21.568Z,2998
2018-04-07T10:08:22.372Z,3015
2018-04-07T10:09:23.115Z,3031
2018-04-07T10:10:23.902Z,3003
2018-04-07T10:11:24.654Z,3015
2018-04-07T10:12:25.401Z,3071
2018-04-07T10:13:26.232Z,3054
2018-04-07T10:14:26.975Z,3026
2018-04-07T10:15:27.712Z,3015
2018-04-07T10:16:28.465Z,3020
2018-04-07T10:17:29.201Z,3003
2018-04-07T10:18:29.958Z,2851
2018-04-07T10:19:31.070Z,2823
2018-04-07T10:20:31.774Z,2829
2018-04-07T10:21:32.593Z,2840
2018-04-07T10:22:33.334Z,2874
2018-04-07T10:23:34.094Z,2919
2018-04-07T10:24:34.879Z,2958
2018-04-07T10:25:35.633Z,3037
2018-04-07T10:26:36.744Z,3054
2018-04-07T10:27:37.468Z,3093
2018-04-07T10:28:38.243Z,3099
2018-04-07T10:29:39.050Z,3105
2018-04-07T10:30:39.897Z,3121
2018-04-07T10:31:40.634Z,3116
2018-04-07T10:32:41.526Z,3110
2018-04-07T10:33:42.396Z,3127
2018-04-07T10:34:43.207Z,3155
2018-04-07T10:35:43.951Z,2559
2018-04-07T10:36:44.779Z,3166
2018-04-07T10:37:45.601Z,3217
2018-04-07T10:38:46.363Z,3234
2018-04-07T10:39:47.161Z,3223
2018-04-07T10:40:47.911Z,3183
2018-04-07T10:41:48.763Z,3200
2018-04-07T10:42:49.574Z,3195
2018-04-07T10:43:50.431Z,3189
2018-04-07T10:44:51.181Z,3183
2018-04-07T10:45:51.930Z,3155
2018-04-07T10:46:52.743Z,3161
2018-04-07T10:47:53.502Z,3155
2018-04-07T10:48:54.251Z,3189
2018-04-07T10:49:54.990Z,3223
2018-04-07T10:50:55.741Z,3099
2018-04-07T10:51:56.494Z,3110
2018-04-07T10:52:57.311Z,3172
2018-04-07T10:53:58.039Z,3172
2018-04-07T10:54:58.783Z,2947
2018-04-07T10:55:59.522Z,3076
2018-04-07T10:57:00.278Z,3105
2018-04-07T10:58:01.009Z,3065
2018-04-07T10:59:01.813Z,3060
2018-04-07T11:00:02.577Z,3161
2018-04-07T11:01:03.394Z,3166
2018-04-07T11:02:04.203Z,3183
2018-04-07T11:03:04.956Z,3189
2018-04-07T11:04:05.688Z,3133
2018-04-07T11:05:06.482Z,3065
2018-04-07T11:06:07.240Z,3037
2018-04-07T11:07:08.042Z,2941
2018-04-07T11:08:08.806Z,2936
2018-04-07T11:09:09.553Z,2941
2018-04-07T11:10:10.370Z,2941
2018-04-07T11:11:11.138Z,2953
2018-04-07T11:12:11.874Z,2908
2018-04-07T11:13:12.691Z,2868
2018-04-07T11:14:13.520Z,2964
2018-04-07T11:15:14.265Z,2958
2018-04-07T11:16:15.025Z,2981
2018-04-07T11:17:15.848Z,2992
2018-04-07T11:18:16.638Z,2981
2018-04-07T11:19:17.496Z,2970
2018-04-07T11:20:18.285Z,2992
2018-04-07T11:21:19.056Z,3003
2018-04-07T11:22:19.800Z,3043
2018-04-07T11:23:20.615Z,3037
2018-04-07T11:24:21.360Z,3048
2018-04-07T11:25:22.196Z,3076
2018-04-07T11:26:22.956Z,3088
2018-04-07T11:27:23.692Z,3060
2018-04-07T11:28:24.989Z,3065
2018-04-07T11:29:26.230Z,3037
2018-04-07T11:31:44.243Z,2975
2018-04-07T11:32:45.102Z,2975
2018-04-07T11:33:45.895Z,2981
2018-04-07T11:34:46.622Z,2975
2018-04-07T11:35:47.496Z,2936
2018-04-07T11:36:48.370Z,2925
2018-04-07T11:37:49.108Z,2913
2018-04-07T11:38:49.919Z,2874
2018-04-07T11:39:50.671Z,2885
2018-04-07T11:40:51.790Z,2863
2018-04-07T11:41:52.495Z,2868
2018-04-07T11:42:53.244Z,2857
2018-04-07T11:43:54.034Z,2857
2018-04-07T11:44:54.858Z,2857
2018-04-07T11:45:55.649Z,2891
2018-04-07T11:46:56.407Z,2880
2018-04-07T11:47:57.280Z,2863
2018-04-07T11:48:58.118Z,2790
2018-04-07T11:49:58.882Z,2812
2018-04-07T11:50:59.628Z,2806
2018-04-07T11:52:00.451Z,2784
2018-04-07T11:53:01.260Z,2812
2018-04-07T11:54:02.080Z,2829
2018-04-07T11:55:02.907Z,2835
2018-04-07T11:56:03.684Z,2835
2018-04-07T11:57:04.452Z,2840
2018-04-07T11:58:05.270Z,2829
2018-04-07T11:59:06.024Z,2795
2018-04-07T12:00:06.749Z,2761
2018-04-07T12:01:07.563Z,405
2018-04-07T12:02:08.309Z,2694
2018-04-07T12:03:09.077Z,2761
2018-04-07T12:04:09.834Z,2750
2018-04-07T12:05:10.603Z,2711
2018-04-07T12:06:11.362Z,2728
2018-04-07T12:07:12.108Z,2733
2018-04-07T12:08:12.891Z,2745
2018-04-07T12:09:13.641Z,2716
2018-04-07T12:10:14.390Z,2733
2018-04-07T12:11:15.158Z,2750
2018-04-07T12:12:16.322Z,2773
2018-04-07T12:13:17.017Z,2806
2018-04-07T12:14:17.904Z,2818
2018-04-07T12:15:18.759Z,2790
2018-04-07T12:16:20.333Z,2767
2018-04-07T12:17:22.258Z,2767
2018-04-07T12:18:23.502Z,2745
2018-04-07T12:19:24.399Z,2739
2018-04-07T12:20:26.127Z,2716
2018-04-07T12:21:28.175Z,2711
2018-04-07T12:22:29.156Z,2739
2018-04-07T12:23:30.003Z,2773
2018-04-07T12:24:30.955Z,2784
2018-04-07T12:25:31.731Z,2767
2018-04-07T12:26:32.914Z,2756
2018-04-07T12:27:34.528Z,2745
2018-04-07T12:28:35.367Z,2739
2018-04-07T12:29:36.123Z,2688
2018-04-07T12:30:36.909Z,461
2018-04-07T12:31:37.709Z,2649
2018-04-07T12:32:38.489Z,2649
2018-04-07T12:33:39.189Z,2632
2018-04-07T12:34:39.948Z,2655
2018-04-07T12:35:40.762Z,2649
2018-04-07T12:36:41.592Z,2643
2018-04-07T12:37:42.356Z,2632
2018-04-07T12:38:43.179Z,2604
2018-04-07T12:39:43.996Z,2610
2018-04-07T12:40:44.784Z,2621
2018-04-07T12:41:45.497Z,2604
2018-04-07T12:42:46.256Z,2576
2018-04-07T12:43:46.991Z,2610
2018-04-07T12:44:47.816Z,2638
2018-04-07T12:45:48.570Z,2649
2018-04-07T12:46:49.342Z,2643
2018-04-07T12:47:50.170Z,2610
2018-04-07T12:48:50.947Z,2621
2018-04-07T12:49:52.019Z,2604
2018-04-07T12:50:52.835Z,2598
2018-04-07T12:51:53.654Z,2559
2018-04-07T12:52:54.417Z,2570
2018-04-07T12:53:55.231Z,2581
2018-04-07T12:54:56.030Z,2621
2018-04-07T12:55:56.773Z,2638
2018-04-07T12:56:57.515Z,2621
2018-04-07T12:57:58.260Z,2610
2018-04-07T12:58:59.091Z,2593
2018-04-07T12:59:59.901Z,2553
2018-04-07T13:01:00.651Z,2548
2018-04-07T13:02:01.486Z,2542
2018-04-07T13:03:02.225Z,2536
2018-04-07T13:04:02.991Z,2441
2018-04-07T13:05:03.785Z,2351
2018-04-07T13:06:04.512Z,2385
2018-04-07T13:07:05.411Z,2019
2018-04-07T13:08:06.227Z,1805
2018-04-07T13:09:07.042Z,1861
2018-04-07T13:10:07.835Z,1873
2018-04-07T13:11:08.705Z,1558
2018-04-07T13:12:09.823Z,1597
2018-04-07T13:13:10.657Z,1738
2018-04-07T13:14:11.517Z,1237
2018-04-07T13:15:12.344Z,1006
2018-04-07T13:16:13.093Z,1113
2018-04-07T13:17:13.930Z,1029
2018-04-07T13:18:15.104Z,1445
2018-04-07T13:19:15.944Z,1631
2018-04-07T13:20:16.668Z,1659
2018-04-07T13:21:17.498Z,1501
2018-04-07T13:22:18.327Z,1468
2018-04-07T13:23:19.117Z,1434
2018-04-07T13:24:19.861Z,1417
2018-04-07T13:25:20.606Z,1428
2018-04-07T13:26:21.375Z,1681
2018-04-07T13:27:22.147Z,1800
2018-04-07T13:28:22.881Z,1743
2018-04-07T13:29:23.624Z,2143
2018-04-07T13:30:24.386Z,1833
2018-04-07T13:31:25.225Z,1985
2018-04-07T13:32:26.054Z,2008
2018-04-07T13:33:38.369Z,1158
2018-04-07T13:34:28.464Z,1125
2018-04-07T13:35:29.207Z,663
2018-04-07T13:36:30.039Z,388
2018-04-07T13:37:30.873Z,371
2018-04-07T13:38:31.655Z,523
2018-04-07T13:39:32.484Z,1271
2018-04-07T13:40:33.229Z,1580
2018-04-07T13:41:34.062Z,472
2018-04-07T13:42:34.799Z,1912
2018-04-07T13:43:35.547Z,1890
2018-04-07T13:44:36.348Z,1968
2018-04-07T13:45:37.160Z,2182
2018-04-07T13:46:38.011Z,2182
2018-04-07T13:47:38.813Z,2160
2018-04-07T13:48:39.571Z,2160
2018-04-07T13:49:40.672Z,2137
2018-04-07T13:50:41.430Z,2188
2018-04-07T13:51:42.273Z,2115
2018-04-07T13:52:43.090Z,1760
2018-04-07T13:53:43.906Z,1372
2018-04-07T13:54:44.770Z,630
2018-04-07T13:55:45.594Z,365
2018-04-07T13:56:46.344Z,360
2018-04-07T13:57:47.143Z,354
2018-04-07T13:58:47.868Z,388
2018-04-07T13:59:48.663Z,348
2018-04-07T14:00:49.418Z,1108
2018-04-07T14:01:50.233Z,337
2018-04-07T14:02:50.988Z,331
2018-04-07T14:03:51.823Z,331
2018-04-07T14:04:52.986Z,326
2018-04-07T14:05:53.734Z,326